createdAt,value
2022-08-16T00:00:38.686Z,19.28
2022-08-16T00:03:14.916Z,19.32
2022-08-16T00:06:24.286Z,19.38
2022-08-16T00:09:14.279Z,19.38
2022-08-16T00:12:05.550Z,19.39
2022-08-16T00:15:52.238Z,19.45
2022-08-16T00:18:44.325Z,19.57
2022-08-16T00:26:35.001Z,19.64
2022-08-16T00:28:47.336Z,19.71
2022-08-16T00:32:01.402Z,19.78
2022-08-16T00:38:40.961Z,19.95
2022-08-16T00:41:49.195Z,20.02
2022-08-16T00:48:30.638Z,20.10
2022-08-16T00:51:41.317Z,20.14
2022-08-16T00:54:14.531Z,20.11
2022-08-16T01:00:38.561Z,20.18
2022-08-16T01:03:35.019Z,20.25
2022-08-16T01:10:34.408Z,20.24
2022-08-16T01:13:29.126Z,20.15
2022-08-16T01:16:20.322Z,20.04
2022-08-16T01:19:49.294Z,20.01
2022-08-16T01:22:47.467Z,20.02
2022-08-16T01:25:33.819Z,19.98
2022-08-16T01:28:20.251Z,19.98
2022-08-16T01:31:15.105Z,20.03
2022-08-16T01:34:07.071Z,20.08
2022-08-16T01:36:41.956Z,20.10
2022-08-16T01:39:35.275Z,20.08
2022-08-16T01:42:43.628Z,19.99
2022-08-16T01:52:03.492Z,20.01
2022-08-16T01:57:56.087Z,19.91
2022-08-16T02:00:47.309Z,19.80
2022-08-16T02:03:58.755Z,19.62
2022-08-16T02:07:03.943Z,19.29
2022-08-16T02:09:59.706Z,19.16
2022-08-16T02:13:02.700Z,19.11
2022-08-16T02:16:28.934Z,19.12
2022-08-16T02:22:49.649Z,19.23
2022-08-16T02:28:47.670Z,19.21
2022-08-16T02:32:03.913Z,19.20
2022-08-16T02:34:56.514Z,19.17
2022-08-16T02:38:08.824Z,19.20
2022-08-16T02:48:00.738Z,19.45
2022-08-16T02:51:10.202Z,19.42
2022-08-16T02:53:48.613Z,19.37
2022-08-16T02:57:14.211Z,19.31
2022-08-16T03:00:34.133Z,19.18
2022-08-16T03:04:39.315Z,19.07
2022-08-16T03:10:14.331Z,19.07
2022-08-16T03:12:55.438Z,19.08
2022-08-16T03:15:49.791Z,19.11
2022-08-16T03:18:40.498Z,19.10
2022-08-16T03:21:15.485Z,19.07
2022-08-16T03:23:51.907Z,19.11
2022-08-16T03:26:24.534Z,19.14
2022-08-16T03:29:54.281Z,19.16
2022-08-16T03:33:03.144Z,19.20
2022-08-16T03:36:30.960Z,19.23
2022-08-16T03:39:14.880Z,19.19
2022-08-16T03:42:07.313Z,19.06
2022-08-16T03:47:51.818Z,18.76
2022-08-16T03:51:00.077Z,18.59
2022-08-16T03:56:30.333Z,18.20
2022-08-16T03:59:39.107Z,18.23
2022-08-16T04:05:25.607Z,18.32
2022-08-16T04:08:24.896Z,18.35
2022-08-16T04:11:20.236Z,18.41
2022-08-16T04:17:42.532Z,18.58
2022-08-16T04:20:33.875Z,18.63
2022-08-16T04:23:27.915Z,18.68
2022-08-16T04:26:36.857Z,18.75
2022-08-16T04:29:46.366Z,18.80
2022-08-16T04:32:36.894Z,18.84
2022-08-16T04:35:16.218Z,18.87
2022-08-16T04:38:11.099Z,18.84
2022-08-16T04:41:32.917Z,18.86
2022-08-16T04:44:32.534Z,18.91
2022-08-16T04:47:56.951Z,19.18
2022-08-16T04:50:47.834Z,19.59
2022-08-16T04:53:41.412Z,19.94
2022-08-16T04:56:48.838Z,20.38
2022-08-16T04:59:40.301Z,20.73
2022-08-16T05:02:42.107Z,21.09
2022-08-16T05:09:28.455Z,21.67
2022-08-16T05:12:55.376Z,22.14
2022-08-16T05:16:23.087Z,22.55
2022-08-16T05:19:03.074Z,22.85
2022-08-16T05:29:04.813Z,24.01
2022-08-16T05:35:03.179Z,24.55
2022-08-16T05:38:32.717Z,24.83
2022-08-16T05:41:09.525Z,25.29
2022-08-16T05:44:52.784Z,25.71
2022-08-16T05:48:04.368Z,26.22
2022-08-16T05:50:46.593Z,26.62
2022-08-16T05:53:44.355Z,26.62
2022-08-16T05:56:37.510Z,26.78
2022-08-16T05:59:47.165Z,27.10
2022-08-16T06:06:28.985Z,27.47
2022-08-16T06:09:59.839Z,27.60
2022-08-16T06:13:08.907Z,28.04
2022-08-16T06:16:35.070Z,28.44
2022-08-16T06:19:07.377Z,28.69
2022-08-16T06:22:00.679Z,28.86
2022-08-16T06:24:53.420Z,29.08
2022-08-16T06:27:57.117Z,29.23
2022-08-16T06:30:48.833Z,29.46
2022-08-16T06:34:00.934Z,29.36
2022-08-16T06:37:10.824Z,29.33
2022-08-16T06:40:18.532Z,29.39
2022-08-16T06:43:30.363Z,29.66
2022-08-16T06:50:48.961Z,30.14
2022-08-16T06:57:22.067Z,30.54
2022-08-16T07:00:24.299Z,30.15
2022-08-16T07:06:52.433Z,30.59
2022-08-16T07:09:33.320Z,31.05
2022-08-16T07:12:08.211Z,31.70
2022-08-16T07:17:47.067Z,30.83
2022-08-16T07:20:59.961Z,31.14
2022-08-16T07:27:44.475Z,31.29
2022-08-16T07:30:54.120Z,31.39
2022-08-16T07:33:51.206Z,31.50
2022-08-16T07:44:15.387Z,31.52
2022-08-16T07:50:07.371Z,31.08
2022-08-16T07:52:46.224Z,31.34
2022-08-16T07:56:16.055Z,31.52
2022-08-16T07:58:55.391Z,31.71
2022-08-16T08:02:05.707Z,31.73
2022-08-16T08:04:46.024Z,31.86
2022-08-16T08:07:54.325Z,31.79
2022-08-16T08:14:49.336Z,30.79
2022-08-16T08:24:00.317Z,30.51
2022-08-16T08:26:51.969Z,30.57
2022-08-16T08:29:43.197Z,30.79
2022-08-16T08:32:59.376Z,30.71
2022-08-16T08:36:02.341Z,30.39
2022-08-16T08:39:28.085Z,30.12
2022-08-16T08:42:18.137Z,30.23
2022-08-16T08:45:43.138Z,30.99
2022-08-16T08:48:33.680Z,31.17
2022-08-16T08:51:47.218Z,31.40
2022-08-16T08:54:56.858Z,31.35
2022-08-16T08:57:47.927Z,31.55
2022-08-16T09:00:56.840Z,31.90
2022-08-16T09:06:24.043Z,32.20
2022-08-16T09:10:06.164Z,32.15
2022-08-16T09:12:57.132Z,32.60
2022-08-16T09:19:03.825Z,32.87
2022-08-16T09:25:37.754Z,33.90
2022-08-16T09:29:13.896Z,34.13
2022-08-16T09:38:31.297Z,34.16
2022-08-16T09:41:22.682Z,34.23
2022-08-16T09:45:12.082Z,34.25
2022-08-16T09:53:42.003Z,34.81
2022-08-16T09:56:26.431Z,35.22
2022-08-16T09:59:04.790Z,35.26
2022-08-16T10:02:44.111Z,34.77
2022-08-16T10:06:11.070Z,34.35
2022-08-16T10:12:23.693Z,35.71
2022-08-16T10:15:35.403Z,35.90
2022-08-16T10:19:01.732Z,36.45
2022-08-16T10:21:56.400Z,36.28
2022-08-16T10:25:04.765Z,35.68
2022-08-16T10:28:41.718Z,35.63
2022-08-16T10:31:43.730Z,36.03
2022-08-16T10:34:32.223Z,36.10
2022-08-16T10:37:39.938Z,35.70
2022-08-16T10:40:28.967Z,35.71
2022-08-16T10:43:19.915Z,36.15
2022-08-16T10:46:33.761Z,36.38
2022-08-16T10:49:57.937Z,36.67
2022-08-16T10:56:55.438Z,36.79
2022-08-16T11:06:00.103Z,35.30
2022-08-16T11:19:02.813Z,35.29
2022-08-16T11:27:52.317Z,35.01
2022-08-16T11:33:53.527Z,34.13
2022-08-16T11:39:55.253Z,34.45
2022-08-16T11:43:07.653Z,34.70
2022-08-16T11:45:42.703Z,34.14
2022-08-16T11:48:28.262Z,33.89
2022-08-16T11:51:35.301Z,33.56
2022-08-16T11:57:57.369Z,33.51
2022-08-16T12:00:53.104Z,33.86
2022-08-16T12:06:53.549Z,34.74
2022-08-16T12:09:29.810Z,34.72
2022-08-16T12:12:03.154Z,34.45
2022-08-16T12:14:59.996Z,34.35
2022-08-16T12:17:52.875Z,34.40
2022-08-16T12:23:35.282Z,34.07
2022-08-16T12:26:26.819Z,34.20
2022-08-16T12:29:34.686Z,34.21
2022-08-16T12:33:04.184Z,33.81
2022-08-16T12:45:21.939Z,34.06
2022-08-16T12:51:30.575Z,32.59
2022-08-16T12:54:22.943Z,32.66
2022-08-16T13:03:32.066Z,32.23
2022-08-16T13:06:52.476Z,32.10
2022-08-16T13:09:28.920Z,32.06
2022-08-16T13:12:39.299Z,31.94
2022-08-16T13:15:55.850Z,31.73
2022-08-16T13:18:52.986Z,31.76
2022-08-16T13:21:44.152Z,31.68
2022-08-16T13:24:58.429Z,31.64
2022-08-16T13:31:14.670Z,31.14
2022-08-16T13:34:23.864Z,30.45
2022-08-16T13:37:13.662Z,29.55
2022-08-16T13:40:21.464Z,28.88
2022-08-16T13:48:56.405Z,25.73
2022-08-16T13:54:55.822Z,24.14
2022-08-16T13:58:37.310Z,23.65
2022-08-16T14:00:55.715Z,23.39
2022-08-16T14:10:11.509Z,22.75
2022-08-16T14:13:07.346Z,22.79
2022-08-16T14:19:36.842Z,21.73
2022-08-16T14:22:40.050Z,22.12
2022-08-16T14:25:36.536Z,22.51
2022-08-16T14:28:26.929Z,23.07
2022-08-16T14:31:38.943Z,23.63
2022-08-16T14:37:21.304Z,24.65
2022-08-16T14:40:13.262Z,25.01
2022-08-16T14:48:15.890Z,25.87
2022-08-16T14:51:23.463Z,26.17
2022-08-16T14:54:36.508Z,26.56
2022-08-16T14:57:09.052Z,26.75
2022-08-16T15:00:04.748Z,26.89
2022-08-16T15:02:59.669Z,26.97
2022-08-16T15:05:49.173Z,26.99
2022-08-16T15:12:46.157Z,27.38
2022-08-16T15:15:37.822Z,27.52
2022-08-16T15:18:46.673Z,27.85
2022-08-16T15:22:29.991Z,28.26
2022-08-16T15:25:05.215Z,28.60
2022-08-16T15:31:22.250Z,28.98
2022-08-16T15:34:13.426Z,29.08
2022-08-16T15:37:53.078Z,29.15
2022-08-16T15:47:18.551Z,29.30
2022-08-16T15:51:03.329Z,29.25
2022-08-16T15:54:16.598Z,29.22
2022-08-16T15:57:22.269Z,29.25
2022-08-16T16:00:16.313Z,29.44
2022-08-16T16:07:30.303Z,29.44
2022-08-16T16:14:03.111Z,29.51
2022-08-16T16:17:00.697Z,29.65
2022-08-16T16:19:53.849Z,29.69
2022-08-16T16:26:11.690Z,29.57
2022-08-16T16:29:07.887Z,29.43
2022-08-16T16:35:07.467Z,29.25
2022-08-16T16:37:57.460Z,29.30
2022-08-16T16:41:23.071Z,29.18
2022-08-16T16:43:58.276Z,29.07
2022-08-16T16:46:42.864Z,28.93
2022-08-16T16:49:16.667Z,28.79
2022-08-16T16:52:07.676Z,28.63
2022-08-16T16:54:57.268Z,28.55
2022-08-16T16:57:47.246Z,28.51
2022-08-16T17:00:38.110Z,28.49
2022-08-16T17:03:53.654Z,28.49
2022-08-16T17:06:26.307Z,28.43
2022-08-16T17:09:54.101Z,28.35
2022-08-16T17:12:47.052Z,28.24
2022-08-16T17:15:57.838Z,28.07
2022-08-16T17:19:15.057Z,27.98
2022-08-16T17:21:58.783Z,27.84
2022-08-16T17:28:58.604Z,27.46
2022-08-16T17:34:35.871Z,27.35
2022-08-16T17:37:55.290Z,27.14
2022-08-16T17:47:19.191Z,26.89
2022-08-16T17:50:45.513Z,26.75
2022-08-16T17:53:55.152Z,26.55
2022-08-16T17:56:46.513Z,26.46
2022-08-16T17:59:53.022Z,26.49
2022-08-16T18:03:01.238Z,26.48
2022-08-16T18:05:51.833Z,26.43
2022-08-16T18:08:25.958Z,26.34
2022-08-16T18:11:03.913Z,26.29
2022-08-16T18:14:02.007Z,26.22
2022-08-16T18:31:07.827Z,26.30
2022-08-16T18:34:15.032Z,26.35
2022-08-16T18:36:47.351Z,26.38
2022-08-16T18:46:06.027Z,26.31
2022-08-16T18:48:38.131Z,26.25
2022-08-16T18:51:28.193Z,26.16
2022-08-16T18:54:19.205Z,26.08
2022-08-16T18:57:08.809Z,25.95
2022-08-16T19:00:17.308Z,25.90
2022-08-16T19:02:59.000Z,25.90
2022-08-16T19:05:34.164Z,25.88
2022-08-16T19:11:49.065Z,25.86
2022-08-16T19:14:39.162Z,25.80
2022-08-16T19:17:11.795Z,25.76
2022-08-16T19:23:50.187Z,25.58
2022-08-16T19:30:25.758Z,25.46
2022-08-16T19:33:15.039Z,25.42
2022-08-16T19:36:31.039Z,25.34
2022-08-16T19:40:00.446Z,25.23
2022-08-16T19:42:50.623Z,25.13
2022-08-16T19:54:49.083Z,24.88
2022-08-16T19:57:40.769Z,24.75
2022-08-16T20:00:52.349Z,24.76
2022-08-16T20:03:46.535Z,24.69
2022-08-16T20:06:35.770Z,24.67
2022-08-16T20:09:47.192Z,24.66
2022-08-16T20:12:41.368Z,24.66
2022-08-16T20:15:17.259Z,24.58
2022-08-16T20:18:42.589Z,24.44
2022-08-16T20:21:50.091Z,24.38
2022-08-16T20:24:34.126Z,24.37
2022-08-16T20:27:25.793Z,24.34
2022-08-16T20:30:16.285Z,24.27
2022-08-16T20:33:30.252Z,24.17
2022-08-16T20:36:02.613Z,24.07
2022-08-16T20:39:30.034Z,24.02
2022-08-16T20:42:37.522Z,24.01
2022-08-16T20:46:02.069Z,23.99
2022-08-16T20:48:53.787Z,23.99
2022-08-16T20:51:26.051Z,23.96
2022-08-16T20:57:59.471Z,23.92
2022-08-16T21:01:10.832Z,23.75
2022-08-16T21:06:33.130Z,23.72
2022-08-16T21:09:22.749Z,23.73
2022-08-16T21:15:40.172Z,23.74
2022-08-16T21:19:05.451Z,23.74
2022-08-16T21:21:37.755Z,23.70
2022-08-16T21:25:02.405Z,23.69
2022-08-16T21:31:34.242Z,23.62
2022-08-16T21:34:43.160Z,23.58
2022-08-16T21:37:15.886Z,23.57
2022-08-16T21:46:05.561Z,23.61
2022-08-16T21:48:55.101Z,23.60
2022-08-16T21:52:04.477Z,23.53
2022-08-16T21:54:56.307Z,23.48
2022-08-16T21:57:46.567Z,23.48
2022-08-16T22:00:55.791Z,23.25
2022-08-16T22:04:36.805Z,22.94
2022-08-16T22:20:58.570Z,22.96
2022-08-16T22:23:56.995Z,22.80
2022-08-16T22:26:33.889Z,22.67
2022-08-16T22:29:25.101Z,22.61
2022-08-16T22:32:14.685Z,22.66
2022-08-16T22:38:50.162Z,22.62
2022-08-16T22:41:07.082Z,22.61
2022-08-16T22:43:39.655Z,22.57
2022-08-16T22:46:47.247Z,22.56
2022-08-16T22:49:19.778Z,22.54
2022-08-16T22:51:52.477Z,22.53
2022-08-16T22:54:48.474Z,22.50
2022-08-16T22:57:38.984Z,22.48
2022-08-16T23:00:31.094Z,22.44
2022-08-16T23:03:22.720Z,22.35
2022-08-16T23:06:00.540Z,22.37
2022-08-16T23:09:09.287Z,22.40
2022-08-16T23:15:06.809Z,22.51
2022-08-16T23:18:16.376Z,22.46
2022-08-16T23:21:24.141Z,22.39
2022-08-16T23:24:17.655Z,22.31
2022-08-16T23:29:57.076Z,22.32
2022-08-16T23:32:29.348Z,22.34
2022-08-16T23:38:47.649Z,22.36
2022-08-16T23:41:38.236Z,22.32
2022-08-16T23:44:44.354Z,22.30
2022-08-16T23:47:54.627Z,22.33
2022-08-16T23:50:46.401Z,22.38
2022-08-16T23:53:20.966Z,22.37
